Terminal Aerodrome Forecast
Issued by NWS

Home | Current Version | Previous Version | Text Only | Print | Product List | Glossary On
Versions: 1 2 3 4 5 6 7 8 9 10 11 12 13 14
000
FTUS45 KTFX 260542
TAFLWT
TAF
KLWT 260542Z 2606/2706 20020G30KT P6SM -TSRA SCT060CB BKN090
     FM260630 VRB06KT P6SM VCTS BKN090CB
     FM260900 VRB06KT P6SM SKC
     FM262200 26007KT P6SM VCTS SCT060CB BKN100=

USA.gov is the U.S. government's official web portal to all federal, state and local government web resources and services.